Time;durP1;ratioP1;P1;durP2;ratioP2;P2;SDS_P1;SDS_P2;PMS_P1;PMS_P2;Temp;Humidity;BMP_temperature;BMP_pressure;BME280_temperature;BME280_humidity;BME280_pressure;Samples;Min_cycle;Max_cycle;Signal;HPM_P1;HPM_P2
2022/08/18 10:33:57;;;;;;;8.75;5.72;;;26.00;72.20;;;;;;5114165;27;20571;-63
2022/08/18 10:36:47;;;;;;;7.57;5.32;;;25.90;72.00;;;;;;5129109;28;20189;-62
2022/08/18 10:39:20;;;;;;;6.07;5.47;;;26.00;72.30;;;;;;5118200;28;20210;-61
2022/08/18 10:41:57;;;;;;;7.07;5.50;;;26.00;71.40;;;;;;5109300;28;20240;-60
2022/08/18 10:44:27;;;;;;;7.35;5.22;;;26.10;71.20;;;;;;5114281;28;20556;-60
2022/08/18 10:47:00;;;;;;;6.40;5.00;;;26.30;71.00;;;;;;5105551;28;20213;-61
2022/08/18 10:49:32;;;;;;;5.57;5.05;;;26.30;70.80;;;;;;5105714;28;20210;-62
2022/08/18 10:52:54;;;;;;;6.57;5.25;;;26.30;70.60;;;;;;5116291;28;20593;-62
2022/08/18 10:55:49;;;;;;;7.00;4.95;;;26.40;70.60;;;;;;5058555;27;20191;-62
2022/08/18 10:58:40;;;;;;;5.70;4.93;;;26.30;70.50;;;;;;5128667;28;20181;-62
2022/08/18 11:01:20;;;;;;;4.95;4.45;;;26.40;70.60;;;;;;5109504;28;20222;-62
2022/08/18 11:04:02;;;;;;;5.60;4.82;;;26.40;70.80;;;;;;5092325;28;20245;-62
2022/08/18 11:07:02;;;;;;;5.53;4.97;;;26.40;70.50;;;;;;5118456;28;20564;-62
2022/08/18 11:09:36;;;;;;;6.22;5.07;;;26.40;70.50;;;;;;5116532;28;20201;-63
2022/08/18 11:12:47;;;;;;;5.53;4.72;;;26.40;70.50;;;;;;5115338;28;20208;-63
2022/08/18 11:18:16;;;;;;;6.70;5.80;;;26.50;69.90;;;;;;5101791;27;21078;-74
2022/08/18 11:20:45;;;;;;;7.25;5.95;;;26.50;69.70;;;;;;5088722;28;20237;-74
2022/08/18 11:23:17;;;;;;;6.78;6.13;;;26.60;69.50;;;;;;5085180;28;20198;-75
2022/08/18 11:25:46;;;;;;;8.90;5.78;;;26.80;69.70;;;;;;5087580;28;20201;-74
2022/08/18 11:28:20;;;;;;;7.35;5.82;;;27.00;68.60;;;;;;5088807;28;20651;-74
2022/08/18 11:30:59;;;;;;;6.05;5.45;;;27.20;70.90;;;;;;5087512;28;20214;-75
2022/08/18 11:33:29;;;;;;;6.43;5.60;;;27.20;69.70;;;;;;5086390;28;20199;-75
2022/08/18 11:36:00;;;;;;;6.82;6.03;;;27.40;70.20;;;;;;5087314;28;20209;-74
2022/08/18 11:38:30;;;;;;;9.40;5.45;;;27.40;68.70;;;;;;5085314;28;20220;-75
2022/08/18 11:41:14;;;;;;;7.57;5.38;;;27.60;69.00;;;;;;5077942;28;20593;-74
2022/08/18 11:43:47;;;;;;;6.32;5.43;;;27.80;68.60;;;;;;5087093;28;20568;-74
2022/08/18 11:46:26;;;;;;;5.20;4.70;;;27.80;68.50;;;;;;5084573;28;20202;-74
2022/08/18 11:49:14;;;;;;;5.88;5.32;;;27.80;65.90;;;;;;5084907;28;20213;-74
2022/08/18 11:51:56;;;;;;;6.90;5.25;;;27.70;66.00;;;;;;5089342;28;20217;-74
2022/08/18 11:54:41;;;;;;;6.47;5.88;;;27.50;66.80;;;;;;5084379;28;20570;-73
2022/08/18 11:57:38;;;;;;;6.00;5.07;;;27.50;65.90;;;;;;5078853;28;20237;-74
2022/08/18 12:00:44;;;;;;;7.88;5.45;;;27.30;68.40;;;;;;5088038;28;20714;-74
2022/08/18 12:03:25;;;;;;;5.97;5.43;;;27.30;65.70;;;;;;5084507;28;20613;-74
2022/08/18 12:06:00;;;;;;;6.90;5.65;;;27.30;68.70;;;;;;5080131;28;20202;-74
2022/08/18 12:08:36;;;;;;;6.65;5.63;;;27.20;67.80;;;;;;5086958;28;20198;-74
2022/08/18 12:11:28;;;;;;;7.05;5.90;;;27.00;69.80;;;;;;5087420;28;20206;-74
2022/08/18 12:14:07;;;;;;;7.25;5.60;;;27.00;68.80;;;;;;5085192;28;20194;-75
2022/08/18 12:16:56;;;;;;;9.65;6.10;;;27.00;68.50;;;;;;5071565;28;20675;-68
2022/08/18 12:19:29;;;;;;;6.50;5.45;;;27.00;67.90;;;;;;5086800;28;20199;-68
2022/08/18 12:22:01;;;;;;;7.43;5.65;;;27.10;66.50;;;;;;5086450;28;20225;-69
2022/08/18 12:24:40;;;;;;;8.40;5.90;;;27.20;67.50;;;;;;5086416;28;20566;-69
2022/08/18 12:27:16;;;;;;;7.63;6.38;;;27.20;70.40;;;;;;5087387;28;20190;-68
2022/08/18 12:29:50;;;;;;;7.93;5.85;;;27.20;68.70;;;;;;5070380;28;20368;-68
2022/08/18 12:32:21;;;;;;;6.80;5.22;;;27.20;69.10;;;;;;5067043;28;20199;-68
2022/08/18 12:35:11;;;;;;;6.22;5.55;;;27.30;66.70;;;;;;5063093;28;20199;-69
2022/08/18 12:37:44;;;;;;;6.72;6.00;;;27.30;68.70;;;;;;5071809;28;20219;-68
2022/08/18 12:40:33;;;;;;;8.43;5.40;;;27.30;67.30;;;;;;5059572;28;20207;-68
2022/08/18 12:43:02;;;;;;;6.20;5.43;;;27.30;66.20;;;;;;5075382;28;20195;-68
2022/08/18 12:45:33;;;;;;;9.55;5.93;;;27.30;66.30;;;;;;5072989;28;20566;-69
2022/08/18 12:48:06;;;;;;;5.82;5.22;;;27.30;68.20;;;;;;5072004;28;20210;-70
2022/08/18 12:50:36;;;;;;;7.50;5.47;;;27.30;70.40;;;;;;5074392;28;20227;-68
2022/08/18 12:53:24;;;;;;;5.60;5.05;;;27.50;68.00;;;;;;5072191;28;20199;-68
2022/08/18 12:56:07;;;;;;;6.30;5.28;;;27.80;65.50;;;;;;5075639;28;20183;-69
2022/08/18 12:58:38;;;;;;;5.65;5.00;;;28.00;66.20;;;;;;5073174;28;20219;-69
2022/08/18 13:01:08;;;;;;;6.15;5.13;;;28.20;65.00;;;;;;5073799;28;20219;-67
2022/08/18 13:03:37;;;;;;;8.10;5.60;;;28.50;65.00;;;;;;5070444;28;20191;-70
2022/08/18 13:06:10;;;;;;;6.05;4.95;;;28.50;67.90;;;;;;5072946;28;20203;-69
2022/08/18 13:08:41;;;;;;;7.35;5.53;;;28.80;64.60;;;;;;5070181;28;20203;-68
2022/08/18 13:11:18;;;;;;;7.10;5.43;;;28.90;66.70;;;;;;5073216;28;20239;-68
2022/08/18 13:13:53;;;;;;;5.60;5.10;;;29.10;66.30;;;;;;5072421;28;20206;-68
2022/08/18 13:16:25;;;;;;;7.03;4.68;;;29.10;66.40;;;;;;5071094;28;20206;-68
2022/08/18 13:19:07;;;;;;;5.97;5.20;;;29.20;64.30;;;;;;5070659;28;20583;-68
2022/08/18 13:21:38;;;;;;;7.57;4.72;;;29.40;63.00;;;;;;5074123;28;20219;-69
2022/08/18 13:24:12;;;;;;;7.15;5.20;;;29.60;63.30;;;;;;5072519;28;20207;-68
2022/08/18 13:26:46;;;;;;;5.60;4.95;;;29.90;61.40;;;;;;5075173;28;20194;-69
2022/08/18 13:29:17;;;;;;;5.85;5.20;;;30.00;63.20;;;;;;5071115;28;20657;-67
2022/08/18 13:31:46;;;;;;;7.10;4.78;;;30.10;62.20;;;;;;5072624;28;20223;-69
2022/08/18 13:34:26;;;;;;;7.25;4.50;;;30.20;60.40;;;;;;5069157;28;20191;-68
2022/08/18 13:36:57;;;;;;;6.90;4.80;;;30.40;60.10;;;;;;5072837;28;20202;-69
2022/08/18 13:39:28;;;;;;;7.00;4.47;;;30.50;61.10;;;;;;5070666;28;20591;-68
2022/08/18 13:42:03;;;;;;;9.40;5.40;;;30.50;62.40;;;;;;5074033;28;20696;-68
2022/08/18 13:44:53;;;;;;;8.70;5.50;;;30.70;59.50;;;;;;5060640;28;20668;-67
2022/08/18 13:47:26;;;;;;;5.88;4.80;;;30.60;61.90;;;;;;5072329;28;20202;-68
2022/08/18 13:49:55;;;;;;;6.07;4.63;;;30.80;60.10;;;;;;5071176;28;20195;-68
2022/08/18 13:52:28;;;;;;;5.63;4.93;;;30.70;61.20;;;;;;5072825;28;20187;-68
2022/08/18 13:55:17;;;;;;;5.45;4.85;;;30.70;60.30;;;;;;5066809;28;20202;-68
2022/08/18 13:57:47;;;;;;;8.38;4.50;;;30.50;61.20;;;;;;5073213;28;20218;-69
2022/08/18 14:00:20;;;;;;;6.22;4.40;;;30.50;60.30;;;;;;5073291;28;20724;-68
2022/08/18 14:02:59;;;;;;;5.30;4.18;;;30.60;59.00;;;;;;5073193;28;20203;-68
2022/08/18 14:05:31;;;;;;;7.25;4.68;;;30.70;59.60;;;;;;5070638;28;20195;-69
2022/08/18 14:08:20;;;;;;;7.13;4.97;;;30.60;60.60;;;;;;5069629;28;20211;-68
2022/08/18 14:10:55;;;;;;;6.57;4.60;;;30.60;61.20;;;;;;5062035;28;20267;-67
2022/08/18 14:13:24;;;;;;;5.40;4.70;;;30.70;60.30;;;;;;5064311;28;20196;-68
2022/08/18 14:15:57;;;;;;;5.55;4.40;;;30.70;59.80;;;;;;5069050;28;20238;-67
2022/08/18 14:18:28;;;;;;;6.65;4.15;;;30.70;60.50;;;;;;5070504;28;20234;-66
2022/08/18 14:26:49;;;;;;;5.55;4.28;;;30.30;60.50;;;;;;5071678;28;20657;-67
2022/08/18 14:29:19;;;;;;;4.70;4.13;;;30.10;61.50;;;;;;5057605;28;20190;-67
2022/08/18 14:32:08;;;;;;;5.57;5.05;;;29.70;61.90;;;;;;5072739;28;20207;-67
2022/08/18 14:34:45;;;;;;;5.55;4.90;;;29.60;62.00;;;;;;5070399;28;20191;-66
2022/08/18 14:37:19;;;;;;;5.30;4.45;;;29.50;61.70;;;;;;5071726;28;20560;-66
2022/08/18 14:39:48;;;;;;;4.93;4.47;;;29.50;62.20;;;;;;5070048;28;20216;-68
2022/08/18 14:42:22;;;;;;;5.63;4.93;;;29.50;62.00;;;;;;5072680;28;20191;-67
2022/08/18 14:45:13;;;;;;;6.35;5.10;;;29.30;62.00;;;;;;5068022;28;20195;-67
2022/08/18 14:47:59;;;;;;;6.75;5.13;;;29.30;62.20;;;;;;5070706;28;20202;-66
2022/08/18 14:50:28;;;;;;;5.68;4.95;;;29.30;61.90;;;;;;5066543;28;20705;-66
2022/08/18 14:52:58;;;;;;;5.95;5.38;;;29.40;62.10;;;;;;5069041;28;20202;-66
2022/08/18 14:55:27;;;;;;;5.70;4.95;;;29.30;63.10;;;;;;5069531;28;20191;-67
2022/08/18 14:57:59;;;;;;;8.65;5.45;;;29.20;62.10;;;;;;5071294;28;20202;-68
2022/08/18 15:00:28;;;;;;;6.95;5.55;;;29.20;61.90;;;;;;5067513;28;20237;-69
2022/08/18 15:02:57;;;;;;;12.45;5.90;;;29.20;63.60;;;;;;5070138;28;20198;-67
2022/08/18 15:05:31;;;;;;;16.73;5.80;;;29.10;63.30;;;;;;5070298;28;20211;-67
2022/08/18 15:08:03;;;;;;;8.68;5.72;;;29.00;63.60;;;;;;5068914;28;20202;-69
2022/08/18 15:10:33;;;;;;;8.70;5.85;;;28.80;64.20;;;;;;5070022;28;20707;-67
2022/08/18 15:13:05;;;;;;;7.28;5.13;;;28.80;63.10;;;;;;5070988;28;20195;-68
2022/08/18 15:15:33;;;;;;;9.48;5.45;;;28.70;63.60;;;;;;5066772;28;20207;-67
2022/08/18 15:18:19;;;;;;;10.63;5.13;;;28.60;63.90;;;;;;5069802;28;20202;-68
2022/08/18 15:26:46;;;;;;;10.50;5.97;;;28.40;64.60;;;;;;5069942;28;20195;-69
2022/08/18 15:29:27;;;;;;;6.90;5.10;;;28.50;64.20;;;;;;5069714;28;20568;-68
2022/08/18 15:31:57;;;;;;;6.22;5.38;;;28.40;64.40;;;;;;5071230;28;20613;-68
2022/08/18 15:34:38;;;;;;;7.70;5.25;;;28.40;64.30;;;;;;5067598;28;20213;-69
2022/08/18 15:37:19;;;;;;;6.82;5.50;;;28.40;64.40;;;;;;5070156;28;20195;-70
2022/08/18 15:40:04;;;;;;;9.18;4.93;;;28.40;63.30;;;;;;5062715;28;20379;-68
2022/08/18 15:42:33;;;;;;;5.85;5.07;;;28.30;64.80;;;;;;5069519;28;20192;-67
2022/08/18 15:45:07;;;;;;;6.55;5.05;;;28.20;65.10;;;;;;5070555;28;20216;-69
2022/08/18 15:47:41;;;;;;;6.78;6.10;;;28.10;65.10;;;;;;5069518;28;20679;-67
2022/08/18 15:50:15;;;;;;;6.00;5.40;;;28.00;65.00;;;;;;5071905;28;20225;-68
2022/08/18 15:52:56;;;;;;;5.88;5.28;;;28.00;65.00;;;;;;5068615;28;20213;-69
2022/08/18 15:55:28;;;;;;;6.63;6.00;;;27.90;65.30;;;;;;5069682;28;20199;-68
2022/08/18 15:58:03;;;;;;;7.13;5.90;;;27.90;64.70;;;;;;5058476;28;20210;-69
2022/08/18 16:00:42;;;;;;;6.60;5.90;;;27.90;64.80;;;;;;5070610;28;20257;-70
2022/08/18 16:03:14;;;;;;;6.10;5.50;;;27.90;65.70;;;;;;5069569;28;20195;-67
2022/08/18 16:05:50;;;;;;;11.73;6.40;;;27.80;65.60;;;;;;5074502;28;20194;-68
2022/08/18 16:08:22;;;;;;;7.00;5.38;;;27.80;65.10;;;;;;5073305;28;20199;-69
2022/08/18 16:10:51;;;;;;;7.20;5.45;;;27.80;65.10;;;;;;5071961;28;20238;-69
2022/08/18 16:13:20;;;;;;;7.35;5.40;;;27.80;65.60;;;;;;5069050;28;20421;-68
2022/08/18 16:15:51;;;;;;;5.35;4.80;;;27.70;65.40;;;;;;5070757;28;20199;-68
2022/08/18 16:18:20;;;;;;;8.32;6.03;;;27.70;65.70;;;;;;5069696;28;20573;-71
2022/08/18 16:20:49;;;;;;;7.43;6.05;;;27.60;66.40;;;;;;5074334;28;20238;-68
2022/08/18 16:23:24;;;;;;;7.30;5.95;;;27.60;65.90;;;;;;5073058;28;20191;-70
2022/08/18 16:26:00;;;;;;;8.07;5.80;;;27.50;66.40;;;;;;5072571;28;20230;-68
2022/08/18 16:28:28;;;;;;;7.43;6.22;;;27.50;65.50;;;;;;5072928;28;20206;-68
2022/08/18 16:31:04;;;;;;;7.60;6.32;;;27.50;65.90;;;;;;5075250;28;20242;-68
2022/08/18 16:33:34;;;;;;;6.72;5.80;;;27.40;65.70;;;;;;5071618;28;20650;-69
2022/08/18 16:36:05;;;;;;;7.15;5.60;;;27.40;65.80;;;;;;5073444;28;20196;-72
2022/08/18 16:38:34;;;;;;;7.82;5.88;;;27.30;65.60;;;;;;5058090;28;20199;-68
2022/08/18 16:41:07;;;;;;;6.70;5.68;;;27.30;65.70;;;;;;5074578;28;20227;-66
2022/08/18 16:43:43;;;;;;;6.13;5.47;;;27.30;65.70;;;;;;5072490;28;20946;-67
2022/08/18 16:46:17;;;;;;;6.32;5.72;;;27.20;65.80;;;;;;5072698;28;20199;-68
2022/08/18 16:48:45;;;;;;;6.43;5.82;;;27.20;66.20;;;;;;5072545;28;20202;-65
2022/08/18 16:51:16;;;;;;;9.55;5.63;;;27.20;66.10;;;;;;5072123;28;20219;-67
2022/08/18 16:53:46;;;;;;;6.65;5.82;;;27.10;66.20;;;;;;5071314;28;20195;-66
2022/08/18 16:56:17;;;;;;;6.57;5.25;;;27.20;65.50;;;;;;5070838;28;20211;-66
2022/08/18 17:04:27;;;;;;;7.63;5.43;;;27.20;65.10;;;;;;5072394;28;20215;-67
2022/08/18 17:06:57;;;;;;;7.30;5.78;;;27.10;65.10;;;;;;5072302;28;20206;-65
2022/08/18 17:09:26;;;;;;;6.80;5.85;;;27.10;65.30;;;;;;5065927;28;20207;-65
2022/08/18 17:11:55;;;;;;;9.20;5.85;;;27.10;65.80;;;;;;5072139;28;20223;-65
2022/08/18 17:14:26;;;;;;;7.35;6.00;;;27.00;65.70;;;;;;5069109;28;20646;-66
2022/08/18 17:16:57;;;;;;;8.25;5.80;;;27.00;66.30;;;;;;5066138;28;20687;-52
2022/08/18 17:19:30;;;;;;;6.30;5.70;;;27.00;66.30;;;;;;5073695;28;20191;-55
2022/08/18 17:21:59;;;;;;;7.10;6.40;;;27.00;66.00;;;;;;5054174;28;20227;-54
2022/08/18 17:24:28;;;;;;;6.75;5.85;;;26.90;66.20;;;;;;5054120;28;20192;-52
2022/08/18 17:27:08;;;;;;;6.70;6.10;;;26.80;66.50;;;;;;5054257;28;20176;-54
2022/08/18 17:29:46;;;;;;;8.85;6.22;;;26.80;66.70;;;;;;5056139;28;20195;-53
2022/08/18 17:32:23;;;;;;;8.23;6.97;;;26.70;67.00;;;;;;5067353;28;20206;-54
2022/08/18 17:34:59;;;;;;;9.43;6.30;;;26.70;67.10;;;;;;5071510;28;20199;-53
2022/08/18 17:37:29;;;;;;;7.75;5.90;;;26.60;66.40;;;;;;5072927;28;20198;-54
2022/08/18 17:40:03;;;;;;;8.45;6.60;;;26.60;66.90;;;;;;5072502;28;20206;-52
2022/08/18 17:42:32;;;;;;;8.43;6.35;;;26.50;67.70;;;;;;5062043;28;20206;-54
2022/08/18 17:45:06;;;;;;;7.57;6.78;;;26.50;67.20;;;;;;5071149;28;20202;-54
2022/08/18 17:47:47;;;;;;;7.35;6.32;;;26.40;67.30;;;;;;5069059;28;20210;-55
2022/08/18 17:53:16;;;;;;;8.20;7.35;;;26.30;68.10;;;;;;5072288;28;20218;-55
2022/08/18 17:55:49;;;;;;;8.25;7.35;;;26.30;68.90;;;;;;5072509;28;20629;-54
2022/08/18 17:58:23;;;;;;;11.07;8.32;;;26.20;70.00;;;;;;5071011;28;20207;-54
2022/08/18 18:00:52;;;;;;;8.60;7.78;;;26.10;70.60;;;;;;5071056;28;20230;-56
2022/08/18 18:03:22;;;;;;;8.98;8.10;;;26.00;71.20;;;;;;5061565;28;20202;-56
2022/08/18 18:05:58;;;;;;;9.52;8.63;;;25.80;71.50;;;;;;5072296;28;20210;-55
2022/08/18 18:08:52;;;;;;;10.93;9.15;;;25.80;71.80;;;;;;5072357;28;20194;-53
2022/08/18 18:11:29;;;;;;;10.32;8.27;;;25.80;71.90;;;;;;5069886;28;20227;-56
2022/08/18 18:14:00;;;;;;;13.73;9.27;;;25.70;72.00;;;;;;5066304;28;20569;-53
2022/08/18 18:16:33;;;;;;;10.10;9.10;;;25.70;72.10;;;;;;5071982;28;20203;-54
2022/08/18 18:19:07;;;;;;;8.80;8.00;;;25.70;72.30;;;;;;5071043;28;20195;-54
2022/08/18 18:21:37;;;;;;;9.88;8.80;;;25.70;72.50;;;;;;5072932;28;20585;-55
2022/08/18 18:24:31;;;;;;;9.90;8.90;;;25.60;72.50;;;;;;5070328;28;20187;-53
2022/08/18 18:27:00;;;;;;;10.10;8.93;;;25.50;72.80;;;;;;5070298;28;20195;-53
2022/08/18 18:29:32;;;;;;;11.02;9.30;;;25.50;73.00;;;;;;5071874;28;20202;-55
2022/08/18 18:32:21;;;;;;;9.52;8.63;;;25.40;73.00;;;;;;5069174;28;20230;-54
2022/08/18 18:35:07;;;;;;;12.10;9.32;;;25.40;73.10;;;;;;5068452;28;20199;-54
2022/08/18 18:37:44;;;;;;;10.48;9.25;;;25.40;73.30;;;;;;5070300;28;20562;-53
2022/08/18 18:40:22;;;;;;;10.18;9.18;;;25.40;73.40;;;;;;5052365;28;20219;-53
2022/08/18 18:42:51;;;;;;;11.23;9.18;;;25.30;73.40;;;;;;5059701;28;20610;-54
2022/08/18 18:45:25;;;;;;;11.90;8.80;;;25.30;73.50;;;;;;5070074;28;20199;-65
2022/08/18 18:48:05;;;;;;;10.88;8.30;;;25.30;73.60;;;;;;5061226;28;20199;-67
2022/08/18 18:50:43;;;;;;;12.25;8.90;;;25.30;73.60;;;;;;5071446;28;20731;-66
2022/08/18 18:53:38;;;;;;;12.30;9.13;;;25.30;74.40;;;;;;5068377;28;20202;-64
2022/08/18 18:56:13;;;;;;;10.73;9.63;;;25.20;73.60;;;;;;5053958;28;20217;-67
2022/08/18 18:58:54;;;;;;;10.00;8.48;;;25.20;73.70;;;;;;5067679;28;20206;-66
2022/08/18 19:01:35;;;;;;;10.18;8.48;;;25.20;73.70;;;;;;5071211;28;20736;-66
2022/08/18 19:04:10;;;;;;;11.52;9.57;;;25.20;73.70;;;;;;5072204;28;20199;-67
2022/08/18 19:06:51;;;;;;;13.60;10.65;;;25.10;73.80;;;;;;5054242;28;20575;-67
2022/08/18 19:09:25;;;;;;;10.10;9.07;;;25.10;74.00;;;;;;5067409;28;20209;-67
2022/08/18 19:12:08;;;;;;;10.68;9.45;;;25.10;74.00;;;;;;5071279;28;20213;-66
2022/08/18 19:14:41;;;;;;;10.77;9.15;;;25.10;74.00;;;;;;5060001;28;20650;-67
2022/08/18 19:17:37;;;;;;;9.60;8.70;;;25.10;74.00;;;;;;5064485;28;20207;-67
2022/08/18 19:20:12;;;;;;;9.85;8.85;;;25.10;74.10;;;;;;5066169;28;20187;-70
2022/08/18 19:22:49;;;;;;;9.82;8.85;;;25.10;74.20;;;;;;5071674;28;20222;-73
2022/08/18 19:25:23;;;;;;;10.88;9.43;;;25.00;74.20;;;;;;5052328;28;20184;-66
2022/08/18 19:27:56;;;;;;;9.70;8.70;;;25.00;74.30;;;;;;5052146;28;20184;-67
2022/08/18 19:30:25;;;;;;;10.13;8.75;;;25.00;74.30;;;;;;5067239;28;20223;-67
2022/08/18 19:32:59;;;;;;;11.60;9.50;;;25.00;74.40;;;;;;5071330;28;20203;-66
2022/08/18 19:35:44;;;;;;;12.73;10.75;;;24.90;74.60;;;;;;5072322;28;20189;-67
2022/08/18 19:38:22;;;;;;;10.82;9.73;;;24.90;74.60;;;;;;5073364;28;20188;-67
2022/08/18 19:40:57;;;;;;;11.10;9.55;;;24.90;74.80;;;;;;5076323;28;20207;-67
2022/08/18 19:43:36;;;;;;;11.38;9.63;;;24.90;74.70;;;;;;5076275;28;20568;-68
2022/08/18 19:46:12;;;;;;;10.23;9.27;;;24.90;74.80;;;;;;5075745;28;20209;-66
2022/08/18 19:48:51;;;;;;;11.32;9.60;;;24.80;74.60;;;;;;5074931;28;20205;-67
2022/08/18 19:51:29;;;;;;;11.05;9.57;;;24.80;74.70;;;;;;5055841;28;20712;-67
2022/08/18 19:54:20;;;;;;;10.93;9.82;;;24.80;75.00;;;;;;5064280;28;20589;-68
2022/08/18 19:57:07;;;;;;;11.55;10.35;;;24.80;75.00;;;;;;5074041;28;20669;-67
2022/08/18 19:59:54;;;;;;;10.68;9.68;;;24.70;75.00;;;;;;5068462;28;20184;-67
2022/08/18 20:02:37;;;;;;;11.07;9.85;;;24.60;75.80;;;;;;5056175;28;20226;-67
2022/08/18 20:05:20;;;;;;;10.98;9.88;;;24.60;75.00;;;;;;5055795;28;20179;-66
2022/08/18 20:08:03;;;;;;;11.10;9.85;;;24.60;75.30;;;;;;5055516;28;20211;-66
2022/08/18 20:10:46;;;;;;;11.18;10.00;;;24.60;75.30;;;;;;5055410;28;20234;-70
2022/08/18 20:13:32;;;;;;;11.48;10.38;;;24.60;75.40;;;;;;5068257;28;20204;-67
2022/08/18 20:16:14;;;;;;;10.55;9.55;;;24.50;75.40;;;;;;5055065;28;20545;-67
2022/08/18 20:18:46;;;;;;;11.10;10.00;;;24.50;75.60;;;;;;5055248;28;20195;-69
2022/08/18 20:21:33;;;;;;;10.75;9.68;;;24.50;75.60;;;;;;5069040;28;20223;-68
2022/08/18 20:24:38;;;;;;;11.05;9.95;;;24.50;75.80;;;;;;5075199;28;20229;-67
2022/08/18 20:27:27;;;;;;;12.40;9.95;;;24.50;75.90;;;;;;5075165;28;20266;-66
2022/08/18 20:30:31;;;;;;;11.70;10.50;;;24.40;75.90;;;;;;5075034;28;20199;-66
2022/08/18 20:33:13;;;;;;;11.50;10.20;;;24.40;76.10;;;;;;5073272;28;20214;-67
2022/08/18 20:35:50;;;;;;;12.75;10.45;;;24.40;76.40;;;;;;5075123;28;20179;-67
2022/08/18 20:38:27;;;;;;;12.25;10.50;;;24.40;76.50;;;;;;5074197;28;20207;-67
2022/08/18 20:40:58;;;;;;;11.77;10.23;;;24.30;76.40;;;;;;5074876;28;20715;-67
2022/08/18 20:43:32;;;;;;;11.38;10.25;;;24.30;76.50;;;;;;5074801;28;20235;-66
2022/08/18 20:46:16;;;;;;;11.05;9.95;;;24.30;76.70;;;;;;5074839;28;20180;-66
2022/08/18 20:49:04;;;;;;;11.52;10.32;;;24.30;76.60;;;;;;5074304;28;20187;-65
2022/08/18 20:51:41;;;;;;;10.73;9.73;;;24.20;76.60;;;;;;5074681;28;20222;-65
2022/08/18 20:54:31;;;;;;;12.70;11.10;;;24.20;76.80;;;;;;5072758;28;20207;-66
2022/08/18 20:57:02;;;;;;;12.63;11.43;;;24.20;77.00;;;;;;5074266;28;20199;-67
2022/08/18 20:59:39;;;;;;;12.65;11.35;;;24.20;77.00;;;;;;5074662;28;20187;-69
2022/08/18 21:02:26;;;;;;;12.27;11.00;;;24.20;77.20;;;;;;5074632;28;20215;-67
2022/08/18 21:04:58;;;;;;;13.25;11.18;;;24.10;77.10;;;;;;5074158;28;20209;-69
2022/08/18 21:07:29;;;;;;;12.32;11.02;;;24.10;77.20;;;;;;5074458;28;20202;-67
2022/08/18 21:10:12;;;;;;;13.57;10.65;;;24.00;77.20;;;;;;5073978;28;20191;-70
2022/08/18 21:12:49;;;;;;;13.93;11.35;;;24.00;77.30;;;;;;5070437;28;20195;-67
2022/08/18 21:15:22;;;;;;;12.55;11.25;;;24.00;77.50;;;;;;5060579;28;20183;-67
2022/08/18 21:18:00;;;;;;;12.85;11.40;;;23.90;77.60;;;;;;5074203;28;20664;-69
2022/08/18 21:20:30;;;;;;;13.48;12.07;;;23.90;77.70;;;;;;5056256;28;20223;-68
2022/08/18 21:23:05;;;;;;;13.18;11.80;;;23.90;77.70;;;;;;5073238;28;20230;-66
2022/08/18 21:25:34;;;;;;;14.32;12.90;;;23.90;77.80;;;;;;5074149;28;20649;-66
2022/08/18 21:28:05;;;;;;;12.95;11.32;;;23.90;78.00;;;;;;5073820;28;20245;-66
2022/08/18 21:30:36;;;;;;;12.82;11.50;;;23.80;78.10;;;;;;5073059;28;20211;-67
2022/08/18 21:33:18;;;;;;;13.38;11.95;;;23.80;78.40;;;;;;5053993;28;20547;-67
2022/08/18 21:35:47;;;;;;;12.88;11.68;;;23.80;79.10;;;;;;5054037;28;20195;-66
2022/08/18 21:38:26;;;;;;;14.02;12.20;;;23.80;79.30;;;;;;5053834;28;20195;-66
2022/08/18 21:40:59;;;;;;;14.52;12.20;;;23.70;79.20;;;;;;5053340;28;20224;-67
2022/08/18 21:43:41;;;;;;;12.98;11.60;;;23.70;79.40;;;;;;5053714;28;20584;-66
2022/08/18 21:46:26;;;;;;;13.82;12.52;;;23.70;79.40;;;;;;5067962;28;20207;-67
2022/08/18 21:48:58;;;;;;;16.42;13.05;;;23.70;79.80;;;;;;5061115;28;20200;-67
2022/08/18 21:51:30;;;;;;;15.15;13.57;;;23.70;81.10;;;;;;5053558;28;20211;-67
2022/08/18 21:54:00;;;;;;;16.80;13.90;;;23.70;82.10;;;;;;5053617;28;20184;-66
2022/08/18 21:56:31;;;;;;;15.55;13.95;;;23.60;82.70;;;;;;5053589;28;20194;-67
2022/08/18 21:59:08;;;;;;;19.08;15.35;;;23.50;83.50;;;;;;5057720;28;20562;-72
2022/08/18 22:01:47;;;;;;;17.77;15.63;;;23.40;83.90;;;;;;5067300;28;20703;-67
2022/08/18 22:04:23;;;;;;;17.98;16.17;;;23.40;85.40;;;;;;5070721;28;20227;-72
2022/08/18 22:06:54;;;;;;;17.60;15.80;;;23.30;85.90;;;;;;5053394;28;20195;-70
2022/08/18 22:15:15;;;;;;;18.52;16.23;;;23.00;86.80;;;;;;5073241;28;20633;-67
2022/08/18 22:17:54;;;;;;;18.63;16.73;;;22.90;87.20;;;;;;5073047;28;20658;-66
2022/08/18 22:20:37;;;;;;;20.15;17.73;;;22.80;87.70;;;;;;5071642;28;20218;-66
2022/08/18 22:26:14;;;;;;;17.73;15.93;;;22.70;88.10;;;;;;5073086;28;20249;-66
2022/08/18 22:28:56;;;;;;;19.33;17.40;;;22.60;88.00;;;;;;5072108;28;20216;-66
2022/08/18 22:31:28;;;;;;;18.80;16.83;;;22.50;88.20;;;;;;5068325;28;20683;-68
2022/08/18 22:34:01;;;;;;;17.98;15.95;;;22.50;88.20;;;;;;5071701;28;20218;-67
2022/08/18 22:36:34;;;;;;;19.35;16.95;;;22.40;88.30;;;;;;5070046;28;20583;-67
2022/08/18 22:39:04;;;;;;;18.10;16.23;;;22.40;88.40;;;;;;5071532;28;20195;-67
2022/08/18 22:41:36;;;;;;;16.70;14.88;;;22.40;87.80;;;;;;5070314;28;20215;-68
2022/08/18 22:44:05;;;;;;;18.33;15.52;;;22.40;87.60;;;;;;5072565;28;20619;-67
2022/08/18 22:46:35;;;;;;;16.33;14.80;;;22.30;87.40;;;;;;5072573;28;20191;-68
2022/08/18 22:49:05;;;;;;;17.25;15.48;;;22.20;87.20;;;;;;5072843;28;20565;-66
2022/08/18 22:51:36;;;;;;;18.27;16.33;;;22.20;87.20;;;;;;5071206;28;20230;-67
2022/08/18 22:54:07;;;;;;;17.58;15.82;;;22.20;87.30;;;;;;5071502;28;20574;-66
2022/08/18 22:56:37;;;;;;;20.40;15.90;;;22.20;87.30;;;;;;5072628;28;20183;-66
2022/08/18 22:59:08;;;;;;;17.67;15.98;;;22.20;87.60;;;;;;5071262;28;20201;-66
2022/08/18 23:01:46;;;;;;;17.58;15.52;;;22.10;87.60;;;;;;5071204;28;20218;-65
2022/08/18 23:04:18;;;;;;;18.02;16.13;;;22.00;87.60;;;;;;5072330;28;20225;-66
2022/08/18 23:06:51;;;;;;;19.88;16.85;;;22.00;88.00;;;;;;5065474;28;20187;-66
2022/08/18 23:09:22;;;;;;;20.15;17.92;;;22.00;88.50;;;;;;5072406;28;20660;-66
2022/08/18 23:11:52;;;;;;;20.17;18.13;;;22.00;89.40;;;;;;5072160;28;20215;-67
2022/08/18 23:14:21;;;;;;;22.73;18.73;;;22.00;89.00;;;;;;5072188;28;20207;-65
2022/08/18 23:16:51;;;;;;;22.27;19.63;;;22.00;89.00;;;;;;5070834;28;20233;-66
2022/08/18 23:19:21;;;;;;;20.92;18.83;;;22.00;89.70;;;;;;5068869;28;20203;-66
2022/08/18 23:21:51;;;;;;;21.52;19.02;;;22.00;89.00;;;;;;5071843;28;20219;-68
2022/08/18 23:24:20;;;;;;;21.65;19.48;;;21.90;89.00;;;;;;5072132;28;20218;-68
2022/08/18 23:26:49;;;;;;;21.80;18.60;;;21.90;89.10;;;;;;5069801;28;20199;-68
2022/08/18 23:29:19;;;;;;;22.58;19.88;;;21.80;89.20;;;;;;5071822;28;20203;-66
2022/08/18 23:31:49;;;;;;;24.85;19.55;;;21.80;89.30;;;;;;5072006;28;20677;-66
2022/08/18 23:34:21;;;;;;;22.77;20.10;;;21.80;89.30;;;;;;5072263;28;20191;-67
2022/08/18 23:36:57;;;;;;;23.33;20.48;;;21.80;89.40;;;;;;5069301;28;20202;-69
2022/08/18 23:39:26;;;;;;;23.42;20.83;;;21.70;89.30;;;;;;5055114;28;20680;-67
2022/08/18 23:41:55;;;;;;;24.88;21.83;;;21.70;89.40;;;;;;5072057;28;20218;-66
2022/08/18 23:44:25;;;;;;;24.65;21.75;;;21.70;89.60;;;;;;5071064;28;20191;-65
2022/08/18 23:46:56;;;;;;;25.33;21.35;;;21.70;89.50;;;;;;5051895;28;20190;-65
2022/08/18 23:49:27;;;;;;;24.90;21.42;;;21.70;89.50;;;;;;5051898;28;20199;-65
2022/08/18 23:51:59;;;;;;;25.75;22.58;;;21.60;89.60;;;;;;5068219;28;20222;-65
2022/08/18 23:54:30;;;;;;;26.90;23.08;;;21.60;89.50;;;;;;5071312;28;20210;-67
2022/08/18 23:56:59;;;;;;;29.25;23.20;;;21.60;89.50;;;;;;5071964;28;20182;-67
2022/08/18 23:59:29;;;;;;;28.17;23.90;;;21.50;89.40;;;;;;5071948;28;20194;-66
